Observations for TORINO CASELLE, Italy (LIMF)

LIMF 100220Z 07005KT CAVOK 04/01 Q1015  
LIMF 100150Z 26004KT 230V300 CAVOK 04/00 Q1014  
LIMF 100120Z 34004KT CAVOK 06/01 Q1014  
LIMF 100050Z 09003KT CAVOK 07/00 Q1014  
LIMF 100020Z 07004KT 310V110 CAVOK 06/00 Q1014  
LIMF 092350Z 31005KT 270V350 CAVOK 07/01 Q1013  
LIMF 092320Z 03006KT 320V070 CAVOK 05/01 Q1013  
LIMF 092250Z 25003KT 210V310 CAVOK 08/01 Q1013  
LIMF 092220Z VRB03KT CAVOK 07/01 Q1013  
LIMF 092150Z 29005KT CAVOK 10/01 Q1013  
LIMF 092120Z VRB03KT CAVOK 10/01 Q1013  
LIMF 092050Z VRB04KT 9999 FEW110 09/01 Q1013
LIMF 092020Z 27010KT 9999 FEW120 11/01 Q1012
LIMF 091950Z 28012KT 9999 SCT110 12/00 Q1012
LIMF 091920Z 26015KT 9999 SCT110 12/M00 Q1012   
LIMF 091850Z 25014KT 9999 SCT110 12/M01 Q1011   
LIMF 091820Z 24013KT 9999 BKN110 12/M00 Q1011   
LIMF 091750Z 25015KT 9999 BKN110 13/M01 Q1010   
LIMF 091720Z 24016KT 9999 BKN090 13/M02 Q1010   
LIMF 091650Z 24015KT 9999 SCT030 BKN090 13/M02 Q1010
LIMF 091620Z 24017KT 9999 FEW030 BKN120 12/M02 Q1009
LIMF 091550Z 24015KT 9999 SCT030 BKN100 12/M02 Q1009
LIMF 091520Z 24016KT 9999 SCT030 SCT120 13/M03 Q1009
LIMF 091450Z 27015KT 240V300 9999 SCT030 SCT090 14/M04 Q1009
LIMF 091420Z 26011KT 9999 SCT030 14/M01 Q1009   
LIMF 091350Z 25009KT 220V280 9999 SCT030 15/M00 Q1009   
LIMF 091320Z 28012KT 9999 SCT030 15/M01 Q1008   
LIMF 091250Z 30013KT CAVOK 15/M01 Q1008 
LIMF 091220Z 30012KT 9999 FEW030 16/M00 Q1008   
LIMF 091150Z 29011KT 230V320 9999 FEW030 15/02 Q1008
LIMF 091120Z 01003KT 320V130 9999 FEW030 SCT090 10/02 Q1008 
LIMF 091050Z 15005KT 080V200 9999 SCT090 10/01 Q1007
LIMF 091020Z VRB04KT CAVOK 09/M00 Q1007 
LIMF 090950Z 09003KT 010V140 CAVOK 07/01 Q1008  
LIMF 090920Z 11006KT 070V140 CAVOK 06/00 Q1008  
LIMF 090850Z VRB04KT CAVOK 06/00 Q1008  
LIMF 090820Z 35003KT 280V040 CAVOK 05/00 Q1008  
LIMF 090750Z 03004KT 360V080 CAVOK 02/M01 Q1007 
LIMF 090720Z 28003KT 200V330 CAVOK 03/M01 Q1007 
LIMF 090650Z 36005KT 330V030 CAVOK 02/M02 Q1007 
LIMF 090620Z 35006KT 330V030 CAVOK 03/M02 Q1007 
LIMF 090550Z 34006KT 310V010 CAVOK 03/M02 Q1007 
LIMF 090520Z VRB04KT CAVOK 02/M02 Q1007 
LIMF 090450Z 03003KT 350V090 CAVOK 01/M03 Q1007 
LIMF 090420Z VRB05KT CAVOK 02/M02 Q1008 
LIMF 090350Z 35006KT 230V040 CAVOK 00/M02 Q1009 
LIMF 090320Z 26003KT 220V300 CAVOK 03/M01 Q1010 
LIMF 090250Z VRB03KT CAVOK 03/M02 Q1011 
LIMF 090220Z 33005KT 270V010 CAVOK 02/M02 Q1011 
LIMF 090150Z 30005KT CAVOK 02/01 Q1011